createdAt,value
2023-12-03T00:01:56.596Z,33.83
2023-12-03T00:04:23.816Z,33.83
2023-12-03T00:06:51.195Z,30.45
2023-12-03T00:09:18.408Z,30.30
2023-12-03T00:11:45.710Z,39.35
2023-12-03T00:14:12.597Z,34.85
2023-12-03T00:16:39.486Z,31.58
2023-12-03T00:19:06.576Z,31.55
2023-12-03T00:21:33.736Z,31.23
2023-12-03T00:24:00.913Z,30.27
2023-12-03T00:26:27.809Z,33.88
2023-12-03T00:28:56.244Z,32.65
2023-12-03T00:31:23.230Z,33.22
2023-12-03T00:33:51.012Z,32.45
2023-12-03T00:36:18.038Z,30.08
2023-12-03T00:38:44.910Z,35.95
2023-12-03T00:41:11.981Z,33.90
2023-12-03T00:43:38.968Z,33.95
2023-12-03T00:46:06.438Z,31.33
2023-12-03T00:48:33.400Z,31.88
2023-12-03T00:51:00.670Z,38.97
2023-12-03T00:53:27.582Z,33.95
2023-12-03T00:55:55.715Z,30.88
2023-12-03T00:58:22.873Z,31.98
2023-12-03T01:00:50.675Z,33.53
2023-12-03T01:03:17.590Z,30.45
2023-12-03T01:05:44.558Z,32.53
2023-12-03T01:08:11.807Z,38.75
2023-12-03T01:10:38.778Z,32.90
2023-12-03T01:13:06.240Z,37.97
2023-12-03T01:15:33.544Z,33.15
2023-12-03T01:18:00.667Z,33.63
2023-12-03T01:20:27.776Z,36.67
2023-12-03T01:22:55.583Z,39.35
2023-12-03T01:25:23.198Z,36.45
2023-12-03T01:27:50.630Z,34.58
2023-12-03T01:30:17.662Z,40.00
2023-12-03T01:32:44.931Z,38.33
2023-12-03T01:35:11.821Z,34.10
2023-12-03T01:37:38.794Z,37.75
2023-12-03T01:40:06.314Z,41.05
2023-12-03T01:42:34.740Z,34.70
2023-12-03T01:45:02.385Z,39.78
2023-12-03T01:47:30.235Z,38.50
2023-12-03T01:50:09.491Z,32.38
2023-12-03T01:52:37.212Z,32.67
2023-12-03T01:55:04.878Z,36.70
2023-12-03T01:57:32.417Z,34.20
2023-12-03T01:59:59.363Z,36.75
2023-12-03T02:02:27.876Z,35.65
2023-12-03T02:04:54.998Z,36.25
2023-12-03T02:07:22.331Z,38.78
2023-12-03T02:09:49.727Z,41.65
2023-12-03T02:12:16.802Z,33.10
2023-12-03T02:14:43.865Z,36.67
2023-12-03T02:17:10.786Z,33.15
2023-12-03T02:19:37.700Z,35.05
2023-12-03T02:22:04.746Z,33.17
2023-12-03T02:24:31.608Z,27.83
2023-12-03T02:26:58.487Z,37.45
2023-12-03T02:29:25.373Z,37.22
2023-12-03T02:31:52.288Z,31.60
2023-12-03T02:34:19.854Z,33.78
2023-12-03T02:36:46.763Z,34.33
2023-12-03T02:39:13.776Z,32.28
2023-12-03T02:41:40.713Z,32.75
2023-12-03T02:44:07.692Z,34.38
2023-12-03T02:46:34.545Z,44.47
2023-12-03T02:49:01.544Z,33.30
2023-12-03T02:51:28.829Z,36.80
2023-12-03T02:53:55.818Z,35.80
2023-12-03T02:56:22.734Z,36.00
2023-12-03T02:58:49.596Z,39.58
2023-12-03T03:01:16.454Z,36.17
2023-12-03T03:03:43.472Z,35.65
2023-12-03T03:06:10.644Z,30.80
2023-12-03T03:08:38.677Z,40.25
2023-12-03T03:11:06.012Z,41.05
2023-12-03T03:13:32.931Z,32.92
2023-12-03T03:15:59.789Z,37.03
2023-12-03T03:18:26.888Z,35.70
2023-12-03T03:20:53.788Z,37.83
2023-12-03T03:23:20.738Z,34.53
2023-12-03T03:25:47.584Z,38.40
2023-12-03T03:28:14.539Z,37.13
2023-12-03T03:30:41.480Z,39.40
2023-12-03T03:33:08.435Z,34.70
2023-12-03T03:35:35.447Z,37.33
2023-12-03T03:38:02.366Z,35.38
2023-12-03T03:40:29.237Z,36.40
2023-12-03T03:42:56.415Z,37.80
2023-12-03T03:45:23.311Z,35.95
2023-12-03T03:47:50.219Z,38.67
2023-12-03T03:50:17.435Z,44.40
2023-12-03T03:52:44.304Z,31.23
2023-12-03T03:55:11.181Z,35.78
2023-12-03T03:57:38.123Z,37.67
2023-12-03T04:00:06.692Z,31.25
2023-12-03T04:02:39.298Z,33.50
2023-12-03T04:05:08.769Z,36.67
2023-12-03T04:07:35.697Z,31.10
2023-12-03T04:10:02.588Z,33.38
2023-12-03T04:12:29.483Z,35.53
2023-12-03T04:14:56.625Z,33.80
2023-12-03T04:17:23.543Z,32.35
2023-12-03T04:19:50.435Z,38.60
2023-12-03T04:22:17.308Z,39.03
2023-12-03T04:24:47.280Z,34.42
2023-12-03T04:27:14.295Z,35.28
2023-12-03T04:29:41.263Z,29.73
2023-12-03T04:32:08.853Z,35.38
2023-12-03T04:34:35.905Z,35.13
2023-12-03T04:37:02.842Z,30.95
2023-12-03T04:39:30.052Z,35.97
2023-12-03T04:41:56.997Z,35.05
2023-12-03T04:44:24.007Z,35.70
2023-12-03T04:46:50.853Z,32.03
2023-12-03T04:49:17.837Z,30.88
2023-12-03T04:51:44.760Z,28.27
2023-12-03T04:54:12.041Z,31.00
2023-12-03T04:56:38.928Z,30.63
2023-12-03T04:59:06.356Z,30.00
2023-12-03T05:01:33.655Z,30.92
2023-12-03T05:04:00.569Z,30.02
2023-12-03T05:06:27.964Z,31.50
2023-12-03T05:08:55.087Z,30.58
2023-12-03T05:11:22.142Z,30.30
2023-12-03T05:13:49.095Z,32.78
2023-12-03T05:16:16.050Z,27.98
2023-12-03T05:18:43.026Z,26.27
2023-12-03T05:21:09.985Z,33.28
2023-12-03T05:23:36.835Z,25.45
2023-12-03T05:26:03.998Z,28.50
2023-12-03T05:28:30.966Z,25.45
2023-12-03T05:30:57.986Z,28.98
2023-12-03T05:33:25.320Z,28.23
2023-12-03T05:35:52.273Z,35.63
2023-12-03T05:38:19.211Z,27.90
2023-12-03T05:40:46.059Z,29.60
2023-12-03T05:43:13.627Z,25.25
2023-12-03T05:45:40.726Z,26.05
2023-12-03T05:48:08.167Z,25.40
2023-12-03T05:50:35.357Z,24.20
2023-12-03T05:53:02.267Z,27.35
2023-12-03T05:55:29.356Z,25.02
2023-12-03T05:57:56.314Z,25.35
2023-12-03T06:00:23.335Z,30.58
2023-12-03T06:02:50.383Z,29.13
2023-12-03T06:05:17.835Z,26.65
2023-12-03T06:07:44.797Z,29.27
2023-12-03T06:10:12.035Z,29.08
2023-12-03T06:12:39.182Z,30.90
2023-12-03T06:15:06.866Z,29.83
2023-12-03T06:17:33.756Z,30.27
2023-12-03T06:20:00.702Z,31.38
2023-12-03T06:22:27.546Z,24.23
2023-12-03T06:24:54.457Z,32.38
2023-12-03T06:27:21.485Z,26.35
2023-12-03T06:29:48.349Z,30.67
2023-12-03T06:32:15.248Z,30.75
2023-12-03T06:34:42.155Z,30.23
2023-12-03T06:37:09.374Z,29.95
2023-12-03T06:39:36.694Z,28.48
2023-12-03T06:42:04.028Z,26.83
2023-12-03T06:44:38.428Z,25.95
2023-12-03T06:47:11.253Z,27.15
2023-12-03T06:49:38.258Z,27.45
2023-12-03T06:52:05.495Z,30.05
2023-12-03T06:54:32.476Z,21.35
2023-12-03T06:56:59.399Z,21.42
2023-12-03T06:59:26.234Z,25.77
2023-12-03T07:01:53.185Z,26.35
2023-12-03T07:04:20.128Z,24.13
2023-12-03T07:06:47.094Z,27.95
2023-12-03T07:09:36.755Z,32.20
2023-12-03T07:12:02.588Z,25.42
2023-12-03T07:14:29.602Z,24.10
2023-12-03T07:16:57.053Z,25.35
2023-12-03T07:19:24.005Z,20.67
2023-12-03T07:21:51.013Z,24.83
2023-12-03T07:24:18.246Z,30.23
2023-12-03T07:26:45.623Z,26.45
2023-12-03T07:29:12.572Z,29.55
2023-12-03T07:31:39.682Z,25.10
2023-12-03T07:34:06.678Z,25.35
2023-12-03T07:36:34.108Z,25.88
2023-12-03T07:39:01.091Z,21.25
2023-12-03T07:41:27.976Z,25.70
2023-12-03T07:43:54.891Z,19.40
2023-12-03T07:46:21.905Z,23.35
2023-12-03T07:48:48.899Z,18.27
2023-12-03T07:51:16.018Z,21.38
2023-12-03T07:53:43.237Z,27.55
2023-12-03T07:56:10.703Z,25.17
2023-12-03T07:58:37.615Z,28.92
2023-12-03T08:01:06.382Z,26.02
2023-12-03T08:03:33.835Z,23.42
2023-12-03T08:06:01.030Z,26.58
2023-12-03T08:08:28.538Z,29.90
2023-12-03T08:10:55.453Z,25.00
2023-12-03T08:13:22.358Z,25.33
2023-12-03T08:15:49.287Z,25.13
2023-12-03T08:18:16.227Z,24.88
2023-12-03T08:20:43.538Z,26.27
2023-12-03T08:23:10.409Z,27.48
2023-12-03T08:25:37.299Z,21.67
2023-12-03T08:28:06.160Z,25.23
2023-12-03T08:30:33.090Z,26.35
2023-12-03T08:33:00.159Z,23.73
2023-12-03T08:35:27.116Z,26.33
2023-12-03T08:37:54.049Z,18.88
2023-12-03T08:40:21.114Z,24.55
2023-12-03T08:42:48.022Z,20.90
2023-12-03T08:45:15.060Z,23.02
2023-12-03T08:47:42.741Z,19.92
2023-12-03T08:50:09.758Z,24.15
2023-12-03T08:52:36.649Z,19.98
2023-12-03T08:55:05.121Z,24.70
2023-12-03T08:57:32.096Z,22.15
2023-12-03T08:59:59.463Z,20.50
2023-12-03T09:02:26.370Z,21.58
2023-12-03T09:04:53.347Z,20.70
2023-12-03T09:07:20.404Z,19.83
2023-12-03T09:09:48.760Z,23.02
2023-12-03T09:12:18.716Z,20.55
2023-12-03T09:14:45.717Z,21.05
2023-12-03T09:17:12.629Z,20.20
2023-12-03T09:19:39.613Z,25.98
2023-12-03T09:22:06.595Z,20.98
2023-12-03T09:24:33.855Z,22.27
2023-12-03T09:27:00.831Z,18.20
2023-12-03T09:29:27.782Z,21.52
2023-12-03T09:31:56.726Z,20.27
2023-12-03T09:34:24.026Z,22.50
2023-12-03T09:36:51.138Z,18.55
2023-12-03T09:39:18.153Z,16.25
2023-12-03T09:41:51.450Z,15.98
2023-12-03T09:44:44.001Z,16.25
2023-12-03T09:47:15.907Z,18.63
2023-12-03T09:49:49.964Z,18.58
2023-12-03T09:52:22.887Z,23.10
2023-12-03T09:54:50.653Z,17.85
2023-12-03T09:57:19.299Z,18.05
2023-12-03T09:59:48.483Z,17.42
2023-12-03T10:02:18.182Z,20.98
2023-12-03T10:04:45.296Z,20.95
2023-12-03T10:07:13.700Z,20.92
2023-12-03T10:09:43.783Z,17.60
2023-12-03T10:12:19.082Z,20.17
2023-12-03T10:14:46.957Z,20.00
2023-12-03T10:17:21.302Z,18.63
2023-12-03T10:19:48.822Z,19.55
2023-12-03T10:22:16.477Z,22.48
2023-12-03T10:24:50.371Z,19.02
2023-12-03T10:27:17.768Z,22.77
2023-12-03T10:29:47.944Z,16.98
2023-12-03T10:32:15.009Z,20.10
2023-12-03T10:34:49.229Z,19.17
2023-12-03T10:37:16.634Z,22.98
2023-12-03T10:39:43.717Z,16.15
2023-12-03T10:42:10.775Z,17.60
2023-12-03T10:44:39.710Z,18.05
2023-12-03T10:47:06.967Z,19.58
2023-12-03T10:49:34.770Z,19.10
2023-12-03T10:52:03.383Z,18.48
2023-12-03T10:54:31.155Z,19.45
2023-12-03T10:56:58.811Z,16.27
2023-12-03T10:59:30.768Z,20.90
2023-12-03T11:02:08.696Z,25.35
2023-12-03T11:04:51.000Z,17.95
2023-12-03T11:07:23.107Z,18.60
2023-12-03T11:09:52.887Z,15.73
2023-12-03T11:12:22.091Z,19.48
2023-12-03T11:14:50.057Z,20.52
2023-12-03T11:17:26.175Z,17.85
2023-12-03T11:20:02.712Z,21.73
2023-12-03T11:22:45.892Z,22.17
2023-12-03T11:25:22.150Z,25.25
2023-12-03T11:27:49.226Z,18.10
2023-12-03T11:30:36.988Z,19.60
2023-12-03T11:33:14.377Z,20.80
2023-12-03T11:35:43.815Z,17.35
2023-12-03T11:38:23.213Z,22.05
2023-12-03T11:40:51.279Z,23.95
2023-12-03T11:43:29.271Z,19.63
2023-12-03T11:45:56.430Z,21.73
2023-12-03T11:48:30.841Z,25.83
2023-12-03T11:50:58.295Z,19.25
2023-12-03T11:54:02.468Z,22.10
2023-12-03T11:56:30.550Z,21.20
2023-12-03T11:58:57.454Z,27.80
2023-12-03T12:01:24.494Z,24.77
2023-12-03T12:03:51.537Z,23.45
2023-12-03T12:06:28.758Z,20.75
2023-12-03T12:08:57.474Z,18.02
2023-12-03T12:11:25.578Z,28.98
2023-12-03T12:13:53.459Z,26.60
2023-12-03T12:16:20.403Z,28.20
2023-12-03T12:18:47.745Z,27.90
2023-12-03T12:21:15.516Z,27.10
2023-12-03T12:23:45.235Z,17.42
2023-12-03T12:26:12.754Z,22.30
2023-12-03T12:28:39.859Z,25.42
2023-12-03T12:31:07.376Z,19.50
2023-12-03T12:33:34.459Z,15.40
2023-12-03T12:36:02.335Z,17.05
2023-12-03T12:38:29.292Z,17.55
2023-12-03T12:40:57.038Z,18.52
2023-12-03T12:43:24.547Z,18.23
2023-12-03T12:45:51.889Z,16.67
2023-12-03T12:48:31.766Z,21.55
2023-12-03T12:50:59.082Z,18.50
2023-12-03T12:53:26.961Z,18.08
2023-12-03T12:55:54.141Z,17.88
2023-12-03T12:58:21.073Z,18.83
2023-12-03T13:00:48.158Z,21.05
2023-12-03T13:03:15.143Z,14.93
2023-12-03T13:05:43.728Z,16.73
2023-12-03T13:08:10.840Z,17.13
2023-12-03T13:10:37.854Z,15.20
2023-12-03T13:13:04.994Z,17.83
2023-12-03T13:15:32.401Z,19.45
2023-12-03T13:18:08.866Z,19.27
2023-12-03T13:20:43.525Z,19.60
2023-12-03T13:23:10.656Z,17.90
2023-12-03T13:25:37.890Z,15.82
2023-12-03T13:28:05.101Z,18.20
2023-12-03T13:30:32.426Z,18.13
2023-12-03T13:33:00.198Z,19.02
2023-12-03T13:35:27.296Z,20.15
2023-12-03T13:37:54.563Z,18.83
2023-12-03T13:40:21.458Z,19.83
2023-12-03T13:42:55.368Z,18.80
2023-12-03T13:45:23.533Z,19.33
2023-12-03T13:47:50.705Z,18.38
2023-12-03T13:50:18.008Z,17.98
2023-12-03T13:52:44.982Z,17.90
2023-12-03T13:55:14.177Z,17.08
2023-12-03T13:57:41.182Z,18.90
2023-12-03T14:00:09.327Z,22.30
2023-12-03T14:02:42.577Z,20.75
2023-12-03T14:07:41.367Z,20.60
2023-12-03T14:10:12.277Z,20.15
2023-12-03T14:12:39.345Z,24.10
2023-12-03T14:15:07.625Z,22.13
2023-12-03T14:17:35.000Z,20.33
2023-12-03T14:20:02.135Z,22.23
2023-12-03T14:22:29.229Z,18.23
2023-12-03T14:24:56.291Z,16.90
2023-12-03T14:27:24.687Z,18.08
2023-12-03T14:29:51.553Z,19.83
2023-12-03T14:32:18.424Z,21.83
2023-12-03T14:34:45.943Z,19.55
2023-12-03T14:37:13.764Z,22.83
2023-12-03T14:39:41.614Z,17.27
2023-12-03T14:42:08.706Z,17.25
2023-12-03T14:44:35.708Z,17.40
2023-12-03T14:47:03.297Z,21.45
2023-12-03T14:49:30.488Z,17.58
2023-12-03T14:51:57.561Z,22.55
2023-12-03T14:54:24.432Z,17.55
2023-12-03T14:56:51.695Z,18.83
2023-12-03T14:59:19.555Z,15.48
2023-12-03T15:01:47.096Z,18.15
2023-12-03T15:04:14.586Z,16.25
2023-12-03T15:06:41.654Z,17.67
2023-12-03T15:09:08.565Z,21.10
2023-12-03T15:11:35.437Z,20.15
2023-12-03T15:14:02.630Z,17.88
2023-12-03T15:16:30.175Z,17.48
2023-12-03T15:18:57.495Z,22.70
2023-12-03T15:21:24.525Z,21.02
2023-12-03T15:23:51.463Z,28.25
2023-12-03T15:26:18.462Z,20.83
2023-12-03T15:28:45.380Z,20.50
2023-12-03T15:31:12.783Z,21.17
2023-12-03T15:33:41.470Z,19.23
2023-12-03T15:36:09.578Z,24.48
2023-12-03T15:38:36.480Z,17.02
2023-12-03T15:41:03.387Z,17.80
2023-12-03T15:43:37.102Z,17.08
2023-12-03T15:46:09.557Z,19.20
2023-12-03T15:48:37.091Z,18.42
2023-12-03T15:51:04.464Z,24.25
2023-12-03T15:53:31.359Z,46.08
2023-12-03T15:56:00.532Z,23.20
2023-12-03T15:58:27.416Z,36.88
2023-12-03T16:00:54.401Z,23.90
2023-12-03T16:03:22.126Z,46.13
2023-12-03T16:05:49.710Z,19.77
2023-12-03T16:08:16.834Z,32.42
2023-12-03T16:10:43.937Z,25.02
2023-12-03T16:13:11.158Z,42.40
2023-12-03T16:15:38.237Z,30.60
2023-12-03T16:18:05.737Z,24.52
2023-12-03T16:20:32.714Z,24.48
2023-12-03T16:22:59.692Z,33.67
2023-12-03T16:25:26.718Z,31.73
2023-12-03T16:27:54.103Z,21.45
2023-12-03T16:30:21.347Z,28.05
2023-12-03T16:32:50.258Z,24.40
2023-12-03T16:35:19.994Z,23.13
2023-12-03T16:37:47.067Z,22.95
2023-12-03T16:40:13.969Z,24.50
2023-12-03T16:42:41.049Z,23.25
2023-12-03T16:45:08.275Z,27.25
2023-12-03T16:47:35.493Z,24.85
2023-12-03T16:50:03.779Z,26.77
2023-12-03T16:52:31.708Z,23.27
2023-12-03T16:54:58.729Z,22.85
2023-12-03T16:57:25.651Z,25.63
2023-12-03T16:59:52.681Z,24.67
2023-12-03T17:02:19.691Z,26.17
2023-12-03T17:04:46.708Z,24.83
2023-12-03T17:07:13.715Z,27.15
2023-12-03T17:09:40.740Z,26.90
2023-12-03T17:12:07.898Z,26.33
2023-12-03T17:14:34.974Z,21.50
2023-12-03T17:17:01.927Z,24.83
2023-12-03T17:19:29.010Z,20.65
2023-12-03T17:21:59.172Z,23.08
2023-12-03T17:24:26.269Z,24.30
2023-12-03T17:26:56.103Z,17.25
2023-12-03T17:29:23.116Z,20.10
2023-12-03T17:31:50.078Z,20.23
2023-12-03T17:34:17.119Z,20.70
2023-12-03T17:36:44.135Z,19.08
2023-12-03T17:39:11.225Z,20.20
2023-12-03T17:41:38.118Z,17.80
2023-12-03T17:44:06.218Z,18.40
2023-12-03T17:46:33.126Z,22.45
2023-12-03T17:49:00.145Z,16.63
2023-12-03T17:51:28.507Z,15.32
2023-12-03T17:53:55.652Z,19.92
2023-12-03T17:56:22.533Z,13.77
2023-12-03T17:58:49.483Z,16.40
2023-12-03T18:01:19.196Z,18.40
2023-12-03T18:03:48.163Z,20.05
2023-12-03T18:06:15.245Z,16.13
2023-12-03T18:08:42.511Z,19.38
2023-12-03T18:11:10.015Z,16.92
2023-12-03T18:13:38.532Z,15.63
2023-12-03T18:16:09.170Z,17.58
2023-12-03T18:18:36.700Z,14.88
2023-12-03T18:21:04.232Z,21.17
2023-12-03T18:23:31.118Z,16.90
2023-12-03T18:25:58.792Z,17.60
2023-12-03T18:28:25.701Z,17.10
2023-12-03T18:30:52.721Z,17.00
2023-12-03T18:33:20.865Z,20.08
2023-12-03T18:35:48.008Z,22.20
2023-12-03T18:38:14.951Z,21.63
2023-12-03T18:40:44.502Z,20.95
2023-12-03T18:43:11.992Z,18.20
2023-12-03T18:45:39.273Z,25.42
2023-12-03T18:48:06.357Z,17.85
2023-12-03T18:50:33.369Z,21.55
2023-12-03T18:53:00.345Z,21.65
2023-12-03T18:55:27.388Z,29.15
2023-12-03T18:57:54.371Z,18.90
2023-12-03T19:00:22.039Z,18.15
2023-12-03T19:02:49.815Z,21.95
2023-12-03T19:05:17.149Z,16.50
2023-12-03T19:07:50.139Z,20.60
2023-12-03T19:10:20.252Z,25.90
2023-12-03T19:12:53.818Z,22.33
2023-12-03T19:15:26.413Z,23.17
2023-12-03T19:17:53.681Z,30.77
2023-12-03T19:20:20.912Z,25.63
2023-12-03T19:22:47.805Z,28.75
2023-12-03T19:25:14.897Z,19.90
2023-12-03T19:27:42.010Z,21.13
2023-12-03T19:30:10.204Z,28.67
2023-12-03T19:32:38.908Z,22.48
2023-12-03T19:35:06.667Z,24.10
2023-12-03T19:37:33.599Z,21.58
2023-12-03T19:40:00.572Z,24.58
2023-12-03T19:42:28.052Z,31.02
2023-12-03T19:44:55.701Z,24.65
2023-12-03T19:47:22.957Z,21.67
2023-12-03T19:49:49.920Z,20.98
2023-12-03T19:52:16.774Z,20.55
2023-12-03T19:54:44.191Z,18.13
2023-12-03T19:57:12.796Z,19.02
2023-12-03T19:59:39.963Z,16.98
2023-12-03T20:02:07.226Z,18.92
2023-12-03T20:04:34.358Z,16.00
2023-12-03T20:07:03.441Z,19.95
2023-12-03T20:09:33.574Z,15.73
2023-12-03T20:12:02.678Z,16.38
2023-12-03T20:14:29.675Z,14.75
2023-12-03T20:16:56.883Z,13.80
2023-12-03T20:19:24.096Z,17.00
2023-12-03T20:21:52.061Z,17.42
2023-12-03T20:24:19.063Z,13.23
2023-12-03T20:26:45.952Z,15.70
2023-12-03T20:29:13.611Z,15.20
2023-12-03T20:31:40.850Z,15.15
2023-12-03T20:34:07.858Z,12.23
2023-12-03T20:36:37.541Z,13.05
2023-12-03T20:39:05.841Z,14.27
2023-12-03T20:41:32.833Z,14.88
2023-12-03T20:43:59.778Z,14.68
2023-12-03T20:46:26.793Z,15.93
2023-12-03T20:48:54.191Z,14.95
2023-12-03T20:51:22.308Z,16.67
2023-12-03T20:53:49.353Z,18.15
2023-12-03T20:56:16.252Z,14.65
2023-12-03T20:58:44.255Z,21.67
2023-12-03T21:01:14.381Z,19.30
2023-12-03T21:03:41.826Z,15.30
2023-12-03T21:06:09.421Z,14.98
2023-12-03T21:08:36.429Z,16.10
2023-12-03T21:11:04.247Z,16.98
2023-12-03T21:13:32.605Z,24.33
2023-12-03T21:16:03.729Z,15.23
2023-12-03T21:18:31.263Z,17.70
2023-12-03T21:20:58.407Z,19.25
2023-12-03T21:23:25.356Z,17.98
2023-12-03T21:25:52.405Z,19.33
2023-12-03T21:28:23.139Z,21.38
2023-12-03T21:30:51.023Z,18.15
2023-12-03T21:33:18.229Z,19.10
2023-12-03T21:35:45.389Z,21.50
2023-12-03T21:38:14.146Z,19.48
2023-12-03T21:40:43.242Z,19.55
2023-12-03T21:43:10.477Z,19.85
2023-12-03T21:45:37.442Z,16.85
2023-12-03T21:48:05.039Z,22.77
2023-12-03T21:50:33.009Z,19.30
2023-12-03T21:53:01.321Z,20.77
2023-12-03T21:55:28.471Z,24.48
2023-12-03T21:57:55.447Z,18.95
2023-12-03T22:00:22.763Z,19.33
2023-12-03T22:02:50.206Z,22.83
2023-12-03T22:05:17.171Z,16.13
2023-12-03T22:07:44.126Z,25.33
2023-12-03T22:10:11.183Z,20.80
2023-12-03T22:12:38.310Z,22.35
2023-12-03T22:15:06.133Z,19.67
2023-12-03T22:17:33.067Z,22.10
2023-12-03T22:19:59.984Z,18.15
2023-12-03T22:22:27.015Z,18.77
2023-12-03T22:24:54.586Z,21.25
2023-12-03T22:27:21.801Z,19.30
2023-12-03T22:29:52.168Z,21.35
2023-12-03T22:32:21.937Z,19.50
2023-12-03T22:34:48.820Z,23.23
2023-12-03T22:37:15.738Z,23.55
2023-12-03T22:39:42.990Z,18.15
2023-12-03T22:42:09.920Z,20.98
2023-12-03T22:44:36.804Z,18.15
2023-12-03T22:47:03.918Z,20.02
2023-12-03T22:49:31.301Z,19.52
2023-12-03T22:51:58.398Z,17.65
2023-12-03T22:54:25.377Z,19.60
2023-12-03T22:56:54.385Z,21.92
2023-12-03T22:59:21.457Z,24.42
2023-12-03T23:01:48.490Z,20.25
2023-12-03T23:04:15.540Z,21.67
2023-12-03T23:06:43.800Z,20.60
2023-12-03T23:09:12.114Z,19.67
2023-12-03T23:11:40.891Z,17.63
2023-12-03T23:14:07.757Z,17.63
2023-12-03T23:16:44.087Z,20.27
2023-12-03T23:19:12.058Z,17.95
2023-12-03T23:21:40.274Z,15.60
2023-12-03T23:24:08.985Z,18.73
2023-12-03T23:26:40.798Z,19.00
2023-12-03T23:29:09.095Z,18.52
2023-12-03T23:31:36.513Z,18.33
2023-12-03T23:34:04.134Z,20.27
2023-12-03T23:36:32.024Z,15.07
2023-12-03T23:38:59.043Z,19.58
2023-12-03T23:41:26.099Z,18.65
2023-12-03T23:43:53.121Z,18.75
2023-12-03T23:46:20.148Z,22.85
2023-12-03T23:48:47.108Z,15.43
2023-12-03T23:51:18.358Z,18.13
2023-12-03T23:53:46.105Z,16.10
2023-12-03T23:56:21.568Z,16.00
2023-12-03T23:58:48.819Z,17.20
